createdAt,value
2023-04-27T00:00:38.560Z,34.79
2023-04-27T00:03:11.965Z,34.76
2023-04-27T00:05:40.101Z,34.69
2023-04-27T00:08:13.236Z,34.61
2023-04-27T00:10:40.866Z,34.72
2023-04-27T00:13:10.992Z,34.59
2023-04-27T00:15:41.174Z,34.48
2023-04-27T00:18:09.671Z,34.57
2023-04-27T00:20:40.182Z,34.84
2023-04-27T00:23:10.560Z,34.59
2023-04-27T00:25:38.190Z,34.63
2023-04-27T00:28:08.314Z,34.43
2023-04-27T00:30:38.554Z,34.46
2023-04-27T00:33:06.252Z,34.58
2023-04-27T00:35:41.733Z,34.92
2023-04-27T00:38:14.923Z,34.69
2023-04-27T00:40:48.653Z,34.85
2023-04-27T00:43:18.310Z,34.60
2023-04-27T00:45:45.990Z,34.81
2023-04-27T00:48:13.481Z,34.66
2023-04-27T00:50:44.475Z,34.98
2023-04-27T00:53:13.501Z,34.46
2023-04-27T00:55:42.938Z,34.84
2023-04-27T00:58:13.794Z,34.98
2023-04-27T01:00:49.560Z,34.76
2023-04-27T01:03:19.671Z,34.68
2023-04-27T01:05:53.203Z,34.76
2023-04-27T01:08:28.949Z,34.83
2023-04-27T01:10:56.598Z,34.67
2023-04-27T01:13:24.294Z,34.56
2023-04-27T01:15:52.697Z,34.64
2023-04-27T01:18:23.353Z,34.41
2023-04-27T01:20:56.593Z,34.87
2023-04-27T01:23:26.410Z,34.96
2023-04-27T01:25:54.939Z,34.92
2023-04-27T01:28:25.960Z,34.56
2023-04-27T01:30:56.240Z,34.44
2023-04-27T01:33:27.408Z,34.33
2023-04-27T01:36:00.282Z,34.54
2023-04-27T01:38:33.651Z,34.64
2023-04-27T01:41:04.050Z,34.86
2023-04-27T01:43:32.230Z,34.53
2023-04-27T01:46:13.634Z,34.83
2023-04-27T01:48:44.271Z,34.83
2023-04-27T01:51:15.182Z,34.60
2023-04-27T01:53:48.633Z,34.86
2023-04-27T01:56:22.886Z,34.48
2023-04-27T01:58:53.057Z,34.72
2023-04-27T02:01:23.100Z,34.44
2023-04-27T02:03:53.346Z,34.70
2023-04-27T02:06:27.815Z,34.70
2023-04-27T02:09:01.141Z,34.64
2023-04-27T02:11:32.305Z,34.56
2023-04-27T02:14:03.729Z,34.76
2023-04-27T02:16:34.126Z,34.80
2023-04-27T02:19:02.932Z,34.72
2023-04-27T02:21:33.666Z,34.64
2023-04-27T02:24:07.358Z,34.78
2023-04-27T02:26:37.622Z,34.49
2023-04-27T02:29:05.160Z,34.75
2023-04-27T02:31:36.181Z,34.57
2023-04-27T02:34:03.656Z,34.60
2023-04-27T02:36:31.702Z,34.65
2023-04-27T02:38:59.246Z,34.29
2023-04-27T02:41:32.313Z,34.38
2023-04-27T02:44:05.449Z,34.76
2023-04-27T02:46:36.766Z,34.47
2023-04-27T02:49:09.424Z,34.54
2023-04-27T02:51:36.784Z,34.79
2023-04-27T02:54:07.183Z,34.55
2023-04-27T02:56:34.778Z,34.88
2023-04-27T02:59:02.281Z,34.46
2023-04-27T03:01:29.810Z,34.58
2023-04-27T03:04:00.336Z,34.53
2023-04-27T03:06:30.252Z,34.26
2023-04-27T03:08:57.677Z,34.72
2023-04-27T03:11:25.249Z,34.55
2023-04-27T03:13:53.116Z,34.70
2023-04-27T03:16:23.422Z,34.63
2023-04-27T03:18:53.903Z,34.71
2023-04-27T03:21:23.833Z,34.59
2023-04-27T03:23:55.068Z,34.77
2023-04-27T03:26:24.239Z,34.42
2023-04-27T03:28:54.018Z,34.62
2023-04-27T03:31:27.607Z,34.54
2023-04-27T03:34:00.160Z,34.54
2023-04-27T03:36:33.716Z,34.46
2023-04-27T03:39:01.300Z,34.67
2023-04-27T03:41:31.933Z,34.73
2023-04-27T03:44:02.056Z,34.40
2023-04-27T03:46:31.987Z,34.91
2023-04-27T03:49:03.281Z,34.69
2023-04-27T03:51:34.355Z,34.58
2023-04-27T03:54:05.704Z,34.49
2023-04-27T03:56:35.989Z,34.55
2023-04-27T03:59:06.633Z,34.77
2023-04-27T04:01:37.307Z,34.64
2023-04-27T04:04:04.968Z,34.90
2023-04-27T04:06:36.428Z,34.59
2023-04-27T04:09:06.766Z,34.72
2023-04-27T04:11:37.374Z,34.42
2023-04-27T04:14:07.065Z,34.63
2023-04-27T04:16:34.650Z,34.51
2023-04-27T04:19:02.283Z,34.42
2023-04-27T04:21:33.054Z,34.70
2023-04-27T04:24:01.033Z,34.63
2023-04-27T04:26:31.219Z,34.63
2023-04-27T04:29:03.560Z,34.65
2023-04-27T04:31:34.301Z,34.20
2023-04-27T04:34:02.412Z,34.61
2023-04-27T04:36:32.992Z,34.73
2023-04-27T04:39:06.776Z,34.29
2023-04-27T04:41:34.266Z,34.39
2023-04-27T04:44:04.446Z,34.52
2023-04-27T04:46:32.337Z,34.45
2023-04-27T04:49:02.642Z,34.88
2023-04-27T04:51:32.767Z,34.51
2023-04-27T04:54:01.798Z,34.65
2023-04-27T04:56:34.765Z,34.87
2023-04-27T04:59:08.594Z,34.77
2023-04-27T05:01:39.221Z,34.28
2023-04-27T05:04:06.913Z,34.42
2023-04-27T05:06:40.879Z,34.51
2023-04-27T05:09:16.463Z,34.85
2023-04-27T05:11:51.100Z,34.41
2023-04-27T05:14:21.323Z,34.23
2023-04-27T05:16:49.501Z,34.90
2023-04-27T05:19:20.773Z,34.76
2023-04-27T05:21:48.599Z,34.40
2023-04-27T05:24:19.080Z,34.40
2023-04-27T05:26:52.285Z,34.43
2023-04-27T05:29:19.827Z,34.27
2023-04-27T05:31:49.759Z,34.18
2023-04-27T05:34:17.599Z,34.23
2023-04-27T05:36:47.064Z,34.16
2023-04-27T05:39:15.296Z,34.10
2023-04-27T05:41:43.027Z,34.08
2023-04-27T05:44:11.262Z,33.91
2023-04-27T05:46:38.800Z,33.74
2023-04-27T05:49:10.554Z,33.57
2023-04-27T05:51:42.952Z,33.63
2023-04-27T05:54:13.668Z,33.58
2023-04-27T05:56:41.452Z,33.66
2023-04-27T05:59:12.233Z,33.80
2023-04-27T06:01:40.278Z,33.72
2023-04-27T06:04:13.641Z,33.28
2023-04-27T06:06:41.244Z,32.98
2023-04-27T06:09:15.028Z,30.55
2023-04-27T06:11:43.710Z,31.94
2023-04-27T06:14:17.672Z,31.27
2023-04-27T06:16:47.795Z,31.63
2023-04-27T06:19:24.342Z,30.94
2023-04-27T06:21:51.995Z,31.49
2023-04-27T06:24:19.847Z,31.83
2023-04-27T06:26:50.060Z,31.22
2023-04-27T06:29:21.203Z,31.14
2023-04-27T06:31:54.015Z,31.48
2023-04-27T06:34:27.196Z,31.13
2023-04-27T06:37:05.224Z,31.28
2023-04-27T06:39:41.460Z,31.17
2023-04-27T06:42:09.610Z,31.26
2023-04-27T06:44:41.602Z,30.77
2023-04-27T06:47:14.414Z,31.32
2023-04-27T06:49:49.599Z,31.76
2023-04-27T06:52:40.236Z,31.42
2023-04-27T06:55:11.321Z,31.38
2023-04-27T06:57:42.229Z,31.11
2023-04-27T07:00:12.101Z,31.43
2023-04-27T07:02:42.608Z,31.39
2023-04-27T07:05:10.920Z,31.64
2023-04-27T07:07:41.450Z,31.98
2023-04-27T07:10:10.331Z,31.81
2023-04-27T07:12:46.288Z,32.13
2023-04-27T07:15:19.701Z,32.11
2023-04-27T07:17:55.106Z,31.50
2023-04-27T07:20:31.680Z,31.65
2023-04-27T07:23:06.553Z,30.95
2023-04-27T07:25:43.656Z,30.85
2023-04-27T07:28:11.535Z,31.27
2023-04-27T07:30:44.761Z,30.58
2023-04-27T07:33:18.160Z,30.62
2023-04-27T07:35:45.801Z,30.70
2023-04-27T07:38:17.576Z,30.89
2023-04-27T07:40:48.955Z,31.14
2023-04-27T07:43:22.387Z,30.95
2023-04-27T07:45:55.035Z,30.93
2023-04-27T07:48:25.635Z,31.07
2023-04-27T07:51:05.675Z,31.48
2023-04-27T07:53:40.839Z,31.64
2023-04-27T07:56:17.564Z,31.74
2023-04-27T07:58:46.056Z,31.14
2023-04-27T08:01:13.780Z,31.38
2023-04-27T08:03:41.589Z,31.13
2023-04-27T08:06:14.986Z,31.09
2023-04-27T08:08:52.176Z,31.55
2023-04-27T08:11:27.921Z,31.12
2023-04-27T08:13:58.750Z,30.49
2023-04-27T08:16:29.482Z,30.61
2023-04-27T08:19:04.311Z,30.59
2023-04-27T08:21:32.985Z,29.96
2023-04-27T08:24:08.914Z,29.97
2023-04-27T08:26:41.585Z,29.33
2023-04-27T08:29:27.221Z,28.96
2023-04-27T08:32:00.948Z,28.72
2023-04-27T08:34:30.300Z,27.48
2023-04-27T08:37:06.405Z,27.28
2023-04-27T08:39:39.032Z,27.27
2023-04-27T08:42:16.710Z,26.63
2023-04-27T08:44:50.497Z,26.89
2023-04-27T08:47:35.126Z,27.03
2023-04-27T08:50:16.142Z,27.05
2023-04-27T08:52:54.027Z,27.40
2023-04-27T08:55:31.657Z,27.74
2023-04-27T08:58:04.401Z,27.93
2023-04-27T09:00:45.272Z,28.15
2023-04-27T09:03:28.625Z,28.58
2023-04-27T09:06:05.201Z,28.80
2023-04-27T09:08:47.146Z,29.13
2023-04-27T09:11:17.385Z,28.78
2023-04-27T09:13:53.868Z,29.08
2023-04-27T09:16:25.460Z,28.83
2023-04-27T09:18:56.768Z,28.77
2023-04-27T09:21:31.506Z,28.66
2023-04-27T09:24:21.406Z,28.64
2023-04-27T09:26:53.339Z,29.05
2023-04-27T09:29:21.343Z,28.89
2023-04-27T09:31:51.869Z,28.72
2023-04-27T09:34:22.317Z,28.71
2023-04-27T09:36:59.724Z,28.99
2023-04-27T09:39:32.905Z,29.11
2023-04-27T09:42:01.091Z,28.95
2023-04-27T09:44:36.597Z,29.32
2023-04-27T09:47:10.582Z,28.90
2023-04-27T09:49:51.133Z,29.07
2023-04-27T09:52:26.863Z,29.26
2023-04-27T09:55:07.117Z,29.14
2023-04-27T09:57:38.151Z,28.92
2023-04-27T10:00:12.029Z,29.21
2023-04-27T10:02:56.571Z,28.91
2023-04-27T10:05:29.988Z,28.98
2023-04-27T10:08:01.343Z,28.95
2023-04-27T10:10:42.085Z,29.13
2023-04-27T10:13:24.303Z,29.38
2023-04-27T10:15:54.489Z,29.54
2023-04-27T10:18:37.380Z,29.56
2023-04-27T10:21:13.886Z,29.00
2023-04-27T10:23:52.007Z,29.12
2023-04-27T10:26:33.556Z,29.21
2023-04-27T10:29:12.026Z,29.24
2023-04-27T10:31:48.739Z,28.98
2023-04-27T10:34:28.844Z,29.03
2023-04-27T10:37:12.168Z,29.11
2023-04-27T10:39:49.053Z,29.42
2023-04-27T10:42:35.134Z,29.16
2023-04-27T10:45:15.300Z,29.48
2023-04-27T10:47:47.917Z,29.27
2023-04-27T10:50:23.395Z,29.36
2023-04-27T10:53:04.374Z,29.12
2023-04-27T10:55:43.610Z,28.59
2023-04-27T10:58:23.443Z,28.72
2023-04-27T11:00:54.781Z,28.80
2023-04-27T11:03:24.308Z,29.01
2023-04-27T11:06:07.694Z,28.42
2023-04-27T11:08:45.355Z,28.44
2023-04-27T11:11:24.311Z,28.11
2023-04-27T11:13:56.003Z,28.53
2023-04-27T11:16:29.668Z,28.41
2023-04-27T11:19:17.165Z,28.24
2023-04-27T11:22:04.159Z,28.21
2023-04-27T11:24:37.346Z,28.14
2023-04-27T11:27:07.945Z,28.16
2023-04-27T11:29:39.555Z,28.09
2023-04-27T11:32:27.839Z,27.92
2023-04-27T11:35:09.256Z,28.22
2023-04-27T11:37:45.473Z,27.65
2023-04-27T11:40:23.216Z,28.32
2023-04-27T11:43:04.412Z,28.14
2023-04-27T11:45:42.642Z,28.22
2023-04-27T11:48:19.069Z,28.29
2023-04-27T11:50:53.506Z,27.97
2023-04-27T11:53:39.303Z,28.18
2023-04-27T11:56:11.213Z,27.86
2023-04-27T11:58:39.822Z,27.67
2023-04-27T12:01:15.536Z,28.02
2023-04-27T12:03:54.327Z,27.94
2023-04-27T12:06:34.054Z,27.84
2023-04-27T12:09:15.571Z,28.03
2023-04-27T12:11:48.961Z,27.89
2023-04-27T12:14:22.217Z,27.93
2023-04-27T12:16:55.088Z,27.86
2023-04-27T12:19:26.832Z,27.38
2023-04-27T12:21:58.538Z,27.80
2023-04-27T12:24:27.469Z,27.80
2023-04-27T12:27:01.144Z,27.53
2023-04-27T12:29:33.136Z,27.75
2023-04-27T12:32:03.758Z,27.33
2023-04-27T12:34:35.995Z,27.86
2023-04-27T12:37:07.696Z,27.91
2023-04-27T12:39:38.317Z,27.31
2023-04-27T12:42:09.272Z,26.95
2023-04-27T12:44:42.113Z,27.43
2023-04-27T12:47:12.266Z,27.42
2023-04-27T12:49:53.834Z,27.38
2023-04-27T12:52:23.622Z,27.51
2023-04-27T12:54:59.456Z,27.70
2023-04-27T12:57:37.916Z,27.71
2023-04-27T13:00:10.512Z,27.41
2023-04-27T13:02:41.579Z,28.01
2023-04-27T13:05:15.681Z,27.75
2023-04-27T13:07:46.982Z,27.73
2023-04-27T13:10:15.727Z,27.71
2023-04-27T13:12:48.062Z,27.58
2023-04-27T13:15:21.507Z,28.01
2023-04-27T13:17:53.532Z,28.00
2023-04-27T13:20:27.375Z,27.85
2023-04-27T13:22:57.682Z,27.74
2023-04-27T13:25:31.647Z,28.39
2023-04-27T13:28:06.114Z,27.79
2023-04-27T13:30:39.037Z,28.32
2023-04-27T13:33:23.304Z,27.64
2023-04-27T13:35:57.919Z,27.67
2023-04-27T13:38:27.872Z,28.01
2023-04-27T13:40:55.953Z,28.62
2023-04-27T13:43:26.044Z,27.35
2023-04-27T13:46:00.730Z,27.25
2023-04-27T13:48:33.423Z,27.34
2023-04-27T13:51:01.435Z,27.71
2023-04-27T13:53:29.180Z,27.39
2023-04-27T13:55:58.004Z,27.36
2023-04-27T13:58:30.732Z,26.88
2023-04-27T14:01:01.125Z,26.86
2023-04-27T14:03:34.894Z,26.41
2023-04-27T14:06:09.333Z,26.49
2023-04-27T14:08:36.962Z,25.97
2023-04-27T14:11:05.937Z,26.49
2023-04-27T14:13:33.594Z,25.87
2023-04-27T14:16:02.610Z,24.90
2023-04-27T14:18:32.730Z,24.78
2023-04-27T14:21:08.716Z,24.53
2023-04-27T14:23:45.246Z,25.12
2023-04-27T14:26:13.432Z,24.69
2023-04-27T14:28:41.135Z,25.00
2023-04-27T14:31:11.330Z,25.01
2023-04-27T14:33:41.458Z,25.71
2023-04-27T14:36:18.170Z,25.32
2023-04-27T14:38:55.817Z,25.70
2023-04-27T14:41:26.419Z,24.92
2023-04-27T14:43:57.964Z,25.04
2023-04-27T14:46:31.173Z,26.08
2023-04-27T14:48:58.815Z,25.44
2023-04-27T14:51:32.585Z,25.06
2023-04-27T14:54:04.598Z,25.43
2023-04-27T14:56:37.658Z,25.68
2023-04-27T14:59:11.627Z,26.03
2023-04-27T15:01:44.673Z,25.93
2023-04-27T15:04:18.835Z,25.20
2023-04-27T15:06:49.076Z,26.92
2023-04-27T15:09:16.951Z,27.32
2023-04-27T15:11:47.481Z,26.79
2023-04-27T15:14:18.460Z,25.75
2023-04-27T15:16:46.208Z,26.53
2023-04-27T15:19:17.262Z,26.76
2023-04-27T15:21:55.262Z,26.63
2023-04-27T15:24:25.974Z,26.89
2023-04-27T15:26:59.744Z,26.74
2023-04-27T15:29:32.512Z,26.56
2023-04-27T15:32:04.108Z,27.26
2023-04-27T15:34:34.886Z,26.98
2023-04-27T15:37:07.810Z,27.61
2023-04-27T15:39:38.876Z,27.71
2023-04-27T15:42:12.673Z,27.74
2023-04-27T15:44:40.664Z,27.85
2023-04-27T15:47:16.570Z,27.60
2023-04-27T15:49:57.065Z,27.25
2023-04-27T15:52:27.253Z,27.36
2023-04-27T15:54:55.552Z,27.24
2023-04-27T15:57:25.871Z,27.35
2023-04-27T15:59:57.988Z,27.66
2023-04-27T16:02:28.781Z,27.59
2023-04-27T16:05:02.951Z,27.85
2023-04-27T16:07:32.142Z,27.54
2023-04-27T16:10:07.853Z,27.70
2023-04-27T16:12:41.382Z,27.62
2023-04-27T16:15:16.250Z,28.32
2023-04-27T16:17:50.211Z,28.15
2023-04-27T16:20:19.859Z,27.81
2023-04-27T16:22:50.256Z,28.10
2023-04-27T16:25:17.997Z,28.26
2023-04-27T16:27:49.185Z,28.21
2023-04-27T16:30:19.766Z,28.42
2023-04-27T16:32:51.028Z,28.68
2023-04-27T16:35:23.658Z,28.62
2023-04-27T16:37:54.570Z,28.33
2023-04-27T16:40:27.439Z,28.47
2023-04-27T16:42:58.457Z,28.65
2023-04-27T16:45:26.282Z,28.43
2023-04-27T16:47:59.783Z,28.70
2023-04-27T16:50:36.439Z,28.49
2023-04-27T16:53:19.638Z,28.39
2023-04-27T16:55:47.274Z,28.74
2023-04-27T16:58:20.098Z,28.50
2023-04-27T17:00:50.389Z,28.67
2023-04-27T17:03:17.849Z,28.77
2023-04-27T17:05:48.041Z,28.88
2023-04-27T17:08:23.397Z,28.22
2023-04-27T17:10:55.888Z,28.50
2023-04-27T17:13:31.857Z,28.91
2023-04-27T17:16:04.012Z,28.60
2023-04-27T17:18:34.182Z,28.71
2023-04-27T17:21:14.721Z,28.73
2023-04-27T17:23:42.708Z,28.97
2023-04-27T17:26:12.135Z,29.72
2023-04-27T17:28:49.478Z,29.83
2023-04-27T17:31:25.111Z,29.99
2023-04-27T17:33:58.847Z,29.96
2023-04-27T17:36:30.123Z,30.08
2023-04-27T17:39:01.500Z,29.96
2023-04-27T17:41:36.953Z,30.12
2023-04-27T17:44:09.119Z,30.28
2023-04-27T17:46:48.182Z,30.32
2023-04-27T17:49:18.785Z,30.09
2023-04-27T17:51:47.230Z,29.85
2023-04-27T17:54:17.562Z,29.79
2023-04-27T17:56:45.491Z,29.98
2023-04-27T17:59:16.172Z,30.33
2023-04-27T18:01:43.895Z,30.57
2023-04-27T18:04:12.391Z,30.02
2023-04-27T18:06:40.319Z,30.54
2023-04-27T18:09:13.841Z,30.23
2023-04-27T18:11:41.732Z,30.44
2023-04-27T18:14:13.578Z,30.37
2023-04-27T18:16:44.358Z,30.24
2023-04-27T18:19:17.129Z,30.49
2023-04-27T18:21:49.039Z,30.63
2023-04-27T18:24:20.110Z,30.37
2023-04-27T18:26:53.518Z,30.79
2023-04-27T18:29:27.220Z,30.38
2023-04-27T18:31:58.521Z,30.82
2023-04-27T18:34:26.974Z,30.61
2023-04-27T18:36:59.740Z,30.70
2023-04-27T18:39:30.398Z,30.75
2023-04-27T18:42:10.757Z,30.62
2023-04-27T18:44:43.954Z,30.55
2023-04-27T18:47:14.226Z,30.91
2023-04-27T18:49:44.637Z,31.08
2023-04-27T18:52:19.005Z,30.98
2023-04-27T18:54:55.066Z,31.24
2023-04-27T18:57:28.080Z,31.07
2023-04-27T19:00:01.499Z,31.03
2023-04-27T19:02:32.139Z,31.21
2023-04-27T19:07:46.764Z,30.80
2023-04-27T19:10:17.228Z,30.90
2023-04-27T19:12:47.783Z,31.07
2023-04-27T19:15:21.016Z,30.97
2023-04-27T19:17:58.579Z,30.67
2023-04-27T19:20:34.572Z,30.75
2023-04-27T19:23:02.442Z,30.89
2023-04-27T19:25:33.090Z,31.29
2023-04-27T19:28:00.971Z,30.91
2023-04-27T19:30:34.090Z,30.99
2023-04-27T19:33:02.207Z,30.96
2023-04-27T19:35:30.397Z,31.20
2023-04-27T19:38:04.115Z,31.15
2023-04-27T19:40:37.132Z,31.13
2023-04-27T19:43:13.036Z,31.00
2023-04-27T19:45:41.939Z,31.06
2023-04-27T19:48:15.164Z,30.52
2023-04-27T19:50:43.681Z,30.72
2023-04-27T19:53:13.938Z,30.39
2023-04-27T19:55:45.815Z,30.62
2023-04-27T19:58:16.480Z,30.83
2023-04-27T20:00:48.121Z,30.98
2023-04-27T20:03:22.506Z,31.07
2023-04-27T20:06:00.462Z,30.75
2023-04-27T20:08:29.044Z,31.24
2023-04-27T20:11:05.785Z,30.94
2023-04-27T20:13:39.307Z,31.32
2023-04-27T20:16:10.061Z,31.37
2023-04-27T20:18:40.595Z,31.53
2023-04-27T20:21:11.152Z,31.13
2023-04-27T20:23:45.122Z,31.32
2023-04-27T20:26:12.814Z,31.14
2023-04-27T20:28:43.469Z,31.85
2023-04-27T20:31:11.281Z,31.17
2023-04-27T20:33:39.016Z,31.29
2023-04-27T20:36:17.251Z,31.23
2023-04-27T20:38:52.047Z,31.37
2023-04-27T20:41:21.460Z,31.56
2023-04-27T20:43:54.282Z,31.35
2023-04-27T20:46:29.939Z,31.53
2023-04-27T20:49:00.512Z,31.31
2023-04-27T20:51:33.051Z,31.54
2023-04-27T20:54:03.384Z,31.25
2023-04-27T20:56:36.247Z,31.20
2023-04-27T20:59:09.182Z,31.22
2023-04-27T21:01:37.427Z,31.49
2023-04-27T21:04:11.472Z,31.36
2023-04-27T21:06:41.212Z,31.59
2023-04-27T21:09:10.075Z,31.60
2023-04-27T21:11:42.722Z,31.69
2023-04-27T21:14:15.947Z,31.53
2023-04-27T21:16:47.628Z,31.82
2023-04-27T21:19:18.178Z,31.81
2023-04-27T21:21:54.164Z,31.81
2023-04-27T21:24:22.164Z,31.67
2023-04-27T21:26:51.234Z,31.52
2023-04-27T21:29:21.897Z,31.54
2023-04-27T21:31:49.789Z,31.67
2023-04-27T21:34:17.770Z,31.82
2023-04-27T21:36:51.224Z,31.52
2023-04-27T21:39:18.910Z,31.84
2023-04-27T21:41:52.232Z,31.83
2023-04-27T21:44:25.967Z,31.85
2023-04-27T21:46:56.499Z,31.83
2023-04-27T21:49:24.197Z,31.91
2023-04-27T21:52:00.165Z,31.86
2023-04-27T21:54:34.140Z,31.99
2023-04-27T21:57:04.803Z,31.64
2023-04-27T21:59:36.583Z,32.01
2023-04-27T22:02:07.440Z,31.80
2023-04-27T22:04:41.117Z,31.65
2023-04-27T22:07:14.307Z,31.95
2023-04-27T22:09:48.239Z,31.69
2023-04-27T22:12:24.382Z,32.08
2023-04-27T22:14:58.008Z,31.89
2023-04-27T22:17:26.105Z,31.75
2023-04-27T22:19:56.161Z,32.00
2023-04-27T22:22:26.734Z,32.05
2023-04-27T22:24:55.481Z,31.99
2023-04-27T22:27:23.626Z,32.03
2023-04-27T22:29:56.795Z,31.83
2023-04-27T22:32:30.052Z,31.97
2023-04-27T22:35:00.147Z,32.13
2023-04-27T22:37:29.744Z,32.24
2023-04-27T22:40:01.424Z,32.12
2023-04-27T22:42:31.958Z,31.90
2023-04-27T22:45:05.634Z,32.00
2023-04-27T22:47:36.240Z,31.92
2023-04-27T22:50:04.948Z,32.28
2023-04-27T22:52:37.255Z,31.93
2023-04-27T22:55:05.266Z,32.30
2023-04-27T22:57:35.997Z,32.03
2023-04-27T23:00:11.944Z,32.00
2023-04-27T23:02:42.902Z,32.30
2023-04-27T23:05:16.735Z,32.32
2023-04-27T23:07:46.275Z,32.07
2023-04-27T23:10:18.878Z,32.14
2023-04-27T23:12:46.959Z,31.94
2023-04-27T23:15:23.934Z,32.38
2023-04-27T23:17:53.761Z,31.97
2023-04-27T23:20:28.616Z,32.45
2023-04-27T23:23:02.858Z,32.01
2023-04-27T23:25:36.376Z,32.26
2023-04-27T23:28:04.027Z,32.36
2023-04-27T23:30:40.211Z,32.13
2023-04-27T23:33:08.084Z,32.33
2023-04-27T23:35:35.763Z,32.12
2023-04-27T23:38:08.865Z,32.20
2023-04-27T23:40:40.058Z,32.31
2023-04-27T23:43:10.572Z,32.05
2023-04-27T23:45:43.861Z,32.42
2023-04-27T23:48:14.009Z,32.33
2023-04-27T23:50:41.769Z,32.22
2023-04-27T23:53:09.262Z,32.21
2023-04-27T23:55:37.289Z,32.12
2023-04-27T23:58:10.253Z,32.29
